sensor_id;sensor_type;location;lat;lon;timestamp;pressure;altitude;pressure_sealevel;temperature;humidity
37066;BME280;22981;43.080;25.550;2024-01-30T00:00:02;101962.96;;;1.51;69.46
37066;BME280;22981;43.080;25.550;2024-01-30T00:02:31;101968.72;;;1.50;69.52
37066;BME280;22981;43.080;25.550;2024-01-30T00:04:59;101962.59;;;1.50;69.59
37066;BME280;22981;43.080;25.550;2024-01-30T00:07:27;101966.27;;;1.47;69.64
37066;BME280;22981;43.080;25.550;2024-01-30T00:09:54;101959.86;;;1.44;69.75
37066;BME280;22981;43.080;25.550;2024-01-30T00:12:22;101969.69;;;1.42;69.85
37066;BME280;22981;43.080;25.550;2024-01-30T00:14:50;101963.64;;;1.40;69.91
37066;BME280;22981;43.080;25.550;2024-01-30T00:17:17;101969.69;;;1.42;69.96
37066;BME280;22981;43.080;25.550;2024-01-30T00:19:46;101970.53;;;1.43;70.01
37066;BME280;22981;43.080;25.550;2024-01-30T00:22:14;101976.28;;;1.42;70.05
37066;BME280;22981;43.080;25.550;2024-01-30T00:24:41;101966.38;;;1.46;70.08
37066;BME280;22981;43.080;25.550;2024-01-30T00:27:09;101970.70;;;1.47;70.11
37066;BME280;22981;43.080;25.550;2024-01-30T00:29:37;101969.20;;;1.50;70.10
37066;BME280;22981;43.080;25.550;2024-01-30T00:32:05;101974.19;;;1.47;70.10
37066;BME280;22981;43.080;25.550;2024-01-30T00:34:33;101965.50;;;1.45;70.17
37066;BME280;22981;43.080;25.550;2024-01-30T00:37:00;101962.98;;;1.44;70.26
37066;BME280;22981;43.080;25.550;2024-01-30T00:39:28;101957.22;;;1.44;70.33
37066;BME280;22981;43.080;25.550;2024-01-30T00:41:55;101961.09;;;1.46;70.35
37066;BME280;22981;43.080;25.550;2024-01-30T00:44:23;101967.78;;;1.44;70.33
37066;BME280;22981;43.080;25.550;2024-01-30T00:46:51;101969.69;;;1.42;70.47
37066;BME280;22981;43.080;25.550;2024-01-30T00:49:18;101964.30;;;1.44;70.48
37066;BME280;22981;43.080;25.550;2024-01-30T00:51:46;101967.59;;;1.47;70.49
37066;BME280;22981;43.080;25.550;2024-01-30T00:54:14;101962.12;;;1.50;70.48
37066;BME280;22981;43.080;25.550;2024-01-30T00:56:41;101965.60;;;1.51;70.46
37066;BME280;22981;43.080;25.550;2024-01-30T00:59:11;101957.03;;;1.47;70.49
37066;BME280;22981;43.080;25.550;2024-01-30T01:01:38;101958.63;;;1.50;70.52
37066;BME280;22981;43.080;25.550;2024-01-30T01:04:06;101960.32;;;1.51;70.59
37066;BME280;22981;43.080;25.550;2024-01-30T01:06:34;101955.23;;;1.48;70.66
37066;BME280;22981;43.080;25.550;2024-01-30T01:09:01;101952.11;;;1.48;70.69
37066;BME280;22981;43.080;25.550;2024-01-30T01:11:30;101953.36;;;1.50;70.68
37066;BME280;22981;43.080;25.550;2024-01-30T01:13:57;101955.05;;;1.51;70.66
37066;BME280;22981;43.080;25.550;2024-01-30T01:16:25;101955.05;;;1.51;70.63
37066;BME280;22981;43.080;25.550;2024-01-30T01:18:53;101951.45;;;1.52;70.66
37066;BME280;22981;43.080;25.550;2024-01-30T01:21:20;101950.60;;;1.52;70.62
37066;BME280;22981;43.080;25.550;2024-01-30T01:23:48;101950.14;;;1.45;70.62
37066;BME280;22981;43.080;25.550;2024-01-30T01:26:15;101947.42;;;1.46;70.64
37066;BME280;22981;43.080;25.550;2024-01-30T01:28:43;101942.70;;;1.44;70.65
37066;BME280;22981;43.080;25.550;2024-01-30T01:31:11;101947.33;;;1.41;70.66
37066;BME280;22981;43.080;25.550;2024-01-30T01:33:38;101947.55;;;1.38;70.74
37066;BME280;22981;43.080;25.550;2024-01-30T01:36:06;101942.16;;;1.39;70.76
37066;BME280;22981;43.080;25.550;2024-01-30T01:38:33;101941.98;;;1.35;70.80
37066;BME280;22981;43.080;25.550;2024-01-30T01:41:01;101941.25;;;1.33;70.88
37066;BME280;22981;43.080;25.550;2024-01-30T01:43:29;101945.66;;;1.33;70.90
37066;BME280;22981;43.080;25.550;2024-01-30T01:45:56;101943.23;;;1.30;70.96
37066;BME280;22981;43.080;25.550;2024-01-30T01:48:24;101941.91;;;1.30;70.95
37066;BME280;22981;43.080;25.550;2024-01-30T01:50:52;101948.52;;;1.30;70.96
37066;BME280;22981;43.080;25.550;2024-01-30T01:53:20;101951.23;;;1.28;70.95
37066;BME280;22981;43.080;25.550;2024-01-30T01:55:48;101951.34;;;1.27;70.99
37066;BME280;22981;43.080;25.550;2024-01-30T01:58:16;101943.90;;;1.26;70.97
37066;BME280;22981;43.080;25.550;2024-01-30T02:00:44;101939.58;;;1.25;70.96
37066;BME280;22981;43.080;25.550;2024-01-30T02:03:11;101935.80;;;1.22;70.90
37066;BME280;22981;43.080;25.550;2024-01-30T02:05:41;101943.83;;;1.20;70.93
37066;BME280;22981;43.080;25.550;2024-01-30T02:08:09;101942.59;;;1.19;70.92
37066;BME280;22981;43.080;25.550;2024-01-30T02:10:37;101929.03;;;1.18;70.92
37066;BME280;22981;43.080;25.550;2024-01-30T02:13:04;101928.30;;;1.16;70.99
37066;BME280;22981;43.080;25.550;2024-01-30T02:15:32;101931.02;;;1.14;71.01
37066;BME280;22981;43.080;25.550;2024-01-30T02:17:59;101933.28;;;1.13;71.05
37066;BME280;22981;43.080;25.550;2024-01-30T02:20:29;101929.52;;;1.10;71.04
37066;BME280;22981;43.080;25.550;2024-01-30T02:22:59;101940.55;;;1.10;71.11
37066;BME280;22981;43.080;25.550;2024-01-30T02:25:38;101945.81;;;1.10;71.33
37066;BME280;22981;43.080;25.550;2024-01-30T02:28:03;101945.81;;;1.10;71.33
37066;BME280;22981;43.080;25.550;2024-01-30T02:30:30;101941.02;;;1.09;71.23
37066;BME280;22981;43.080;25.550;2024-01-30T02:32:58;101940.91;;;1.11;71.29
37066;BME280;22981;43.080;25.550;2024-01-30T02:35:26;101938.02;;;1.08;71.36
37066;BME280;22981;43.080;25.550;2024-01-30T02:37:53;101939.41;;;1.14;71.34
37066;BME280;22981;43.080;25.550;2024-01-30T02:40:21;101937.98;;;1.15;71.31
37066;BME280;22981;43.080;25.550;2024-01-30T02:42:48;101930.83;;;1.17;71.36
37066;BME280;22981;43.080;25.550;2024-01-30T02:45:16;101939.22;;;1.17;71.39
37066;BME280;22981;43.080;25.550;2024-01-30T02:47:44;101936.58;;;1.17;71.41
37066;BME280;22981;43.080;25.550;2024-01-30T02:50:11;101940.72;;;1.14;71.45
37066;BME280;22981;43.080;25.550;2024-01-30T02:52:40;101928.86;;;1.07;71.53
37066;BME280;22981;43.080;25.550;2024-01-30T02:55:10;101928.86;;;1.07;71.53
37066;BME280;22981;43.080;25.550;2024-01-30T02:57:38;101930.94;;;1.09;71.54
37066;BME280;22981;43.080;25.550;2024-01-30T03:00:06;101928.59;;;1.04;71.57
37066;BME280;22981;43.080;25.550;2024-01-30T03:02:36;101932.19;;;1.03;71.64
37066;BME280;22981;43.080;25.550;2024-01-30T03:05:05;101931.31;;;1.03;71.69
37066;BME280;22981;43.080;25.550;2024-01-30T03:07:33;101925.67;;;1.02;71.73
37066;BME280;22981;43.080;25.550;2024-01-30T03:10:01;101937.65;;;1.00;71.72
37066;BME280;22981;43.080;25.550;2024-01-30T03:12:29;101936.88;;;0.98;71.79
37066;BME280;22981;43.080;25.550;2024-01-30T03:14:56;101935.97;;;0.99;71.81
37066;BME280;22981;43.080;25.550;2024-01-30T03:17:24;101929.92;;;0.97;71.77
37066;BME280;22981;43.080;25.550;2024-01-30T03:19:51;101933.22;;;1.00;71.78
37066;BME280;22981;43.080;25.550;2024-01-30T03:22:19;101935.37;;;1.01;71.79
37066;BME280;22981;43.080;25.550;2024-01-30T03:24:46;101929.63;;;1.02;71.79
37066;BME280;22981;43.080;25.550;2024-01-30T03:27:14;101929.63;;;1.02;71.79
37066;BME280;22981;43.080;25.550;2024-01-30T03:29:42;101931.42;;;1.01;71.88
37066;BME280;22981;43.080;25.550;2024-01-30T03:32:09;101932.27;;;1.02;71.93
37066;BME280;22981;43.080;25.550;2024-01-30T03:34:37;101927.47;;;1.01;71.93
37066;BME280;22981;43.080;25.550;2024-01-30T03:37:05;101929.27;;;1.00;71.94
37066;BME280;22981;43.080;25.550;2024-01-30T03:39:32;101936.81;;;0.99;71.98
37066;BME280;22981;43.080;25.550;2024-01-30T03:42:00;101937.65;;;1.00;72.03
37066;BME280;22981;43.080;25.550;2024-01-30T03:44:27;101935.37;;;1.01;72.01
37066;BME280;22981;43.080;25.550;2024-01-30T03:46:55;101935.86;;;1.00;72.06
37066;BME280;22981;43.080;25.550;2024-01-30T03:49:23;101935.67;;;1.04;72.10
37066;BME280;22981;43.080;25.550;2024-01-30T03:51:50;101932.27;;;1.02;72.05
37066;BME280;22981;43.080;25.550;2024-01-30T03:54:18;101932.27;;;1.02;72.05
37066;BME280;22981;43.080;25.550;2024-01-30T03:56:45;101930.66;;;1.06;72.16
37066;BME280;22981;43.080;25.550;2024-01-30T03:59:13;101930.66;;;1.06;72.16
37066;BME280;22981;43.080;25.550;2024-01-30T04:01:41;101938.27;;;1.11;72.03
37066;BME280;22981;43.080;25.550;2024-01-30T04:04:08;101937.80;;;1.11;72.03
37066;BME280;22981;43.080;25.550;2024-01-30T04:06:36;101942.63;;;1.12;72.00
37066;BME280;22981;43.080;25.550;2024-01-30T04:09:03;101947.50;;;1.11;71.94
37066;BME280;22981;43.080;25.550;2024-01-30T04:11:31;101942.70;;;1.10;71.97
37066;BME280;22981;43.080;25.550;2024-01-30T04:13:59;101950.25;;;1.09;71.93
37066;BME280;22981;43.080;25.550;2024-01-30T04:16:26;101946.41;;;1.08;71.85
37066;BME280;22981;43.080;25.550;2024-01-30T04:18:54;101939.89;;;1.06;71.76
37066;BME280;22981;43.080;25.550;2024-01-30T04:21:22;101947.33;;;1.07;71.76
37066;BME280;22981;43.080;25.550;2024-01-30T04:23:51;101952.41;;;1.10;71.76
37066;BME280;22981;43.080;25.550;2024-01-30T04:26:18;101952.41;;;1.10;71.70
37066;BME280;22981;43.080;25.550;2024-01-30T04:28:46;101957.14;;;1.12;71.66
37066;BME280;22981;43.080;25.550;2024-01-30T04:31:14;101961.94;;;1.12;71.69
37066;BME280;22981;43.080;25.550;2024-01-30T04:33:41;101960.03;;;1.14;71.66
37066;BME280;22981;43.080;25.550;2024-01-30T04:36:09;101961.54;;;1.11;71.65
37066;BME280;22981;43.080;25.550;2024-01-30T04:38:38;101959.01;;;1.10;71.64
37066;BME280;22981;43.080;25.550;2024-01-30T04:41:05;101965.89;;;1.12;71.65
37066;BME280;22981;43.080;25.550;2024-01-30T04:43:33;101962.20;;;1.15;71.66
37066;BME280;22981;43.080;25.550;2024-01-30T04:46:01;101959.48;;;1.16;71.64
37066;BME280;22981;43.080;25.550;2024-01-30T04:48:28;101961.91;;;1.19;71.64
37066;BME280;22981;43.080;25.550;2024-01-30T04:50:56;101967.47;;;1.22;71.59
37066;BME280;22981;43.080;25.550;2024-01-30T04:53:23;101970.11;;;1.22;71.57
37066;BME280;22981;43.080;25.550;2024-01-30T04:55:51;101963.22;;;1.19;71.53
37066;BME280;22981;43.080;25.550;2024-01-30T04:58:19;101963.98;;;1.21;71.54
37066;BME280;22981;43.080;25.550;2024-01-30T05:00:46;101966.15;;;1.22;71.58
37066;BME280;22981;43.080;25.550;2024-01-30T05:03:16;101960.03;;;1.21;71.51
37066;BME280;22981;43.080;25.550;2024-01-30T05:05:44;101960.03;;;1.21;71.51
37066;BME280;22981;43.080;25.550;2024-01-30T05:08:11;101966.26;;;1.20;71.71
37066;BME280;22981;43.080;25.550;2024-01-30T05:10:39;101966.26;;;1.20;71.71
37066;BME280;22981;43.080;25.550;2024-01-30T05:13:06;101966.81;;;1.18;71.68
37066;BME280;22981;43.080;25.550;2024-01-30T05:15:34;101966.16;;;1.15;71.66
37066;BME280;22981;43.080;25.550;2024-01-30T05:18:01;101962.86;;;1.11;71.74
37066;BME280;22981;43.080;25.550;2024-01-30T05:20:29;101961.54;;;1.11;71.78
37066;BME280;22981;43.080;25.550;2024-01-30T05:22:57;101958.64;;;1.09;71.72
37066;BME280;22981;43.080;25.550;2024-01-30T05:25:24;101963.73;;;1.12;71.68
37066;BME280;22981;43.080;25.550;2024-01-30T05:27:52;101963.73;;;1.12;71.68
37066;BME280;22981;43.080;25.550;2024-01-30T05:30:19;101968.35;;;1.08;71.63
37066;BME280;22981;43.080;25.550;2024-01-30T05:32:47;101968.83;;;1.08;71.71
37066;BME280;22981;43.080;25.550;2024-01-30T05:35:14;101961.65;;;1.03;71.70
37066;BME280;22981;43.080;25.550;2024-01-30T05:37:42;101964.21;;;1.04;71.71
37066;BME280;22981;43.080;25.550;2024-01-30T05:40:11;101961.39;;;1.00;71.75
37066;BME280;22981;43.080;25.550;2024-01-30T05:42:38;101961.02;;;0.99;71.92
37066;BME280;22981;43.080;25.550;2024-01-30T05:45:06;101961.02;;;0.99;71.92
37066;BME280;22981;43.080;25.550;2024-01-30T05:47:35;101959.78;;;0.97;71.71
37066;BME280;22981;43.080;25.550;2024-01-30T05:50:02;101968.28;;;0.95;71.69
37066;BME280;22981;43.080;25.550;2024-01-30T05:52:30;101969.89;;;0.91;71.68
37066;BME280;22981;43.080;25.550;2024-01-30T05:54:58;101968.16;;;0.90;71.72
37066;BME280;22981;43.080;25.550;2024-01-30T05:57:26;101973.18;;;0.87;71.89
37066;BME280;22981;43.080;25.550;2024-01-30T05:59:54;101973.18;;;0.87;71.89
37066;BME280;22981;43.080;25.550;2024-01-30T06:02:21;101976.08;;;0.90;71.74
37066;BME280;22981;43.080;25.550;2024-01-30T06:04:49;101974.86;;;0.88;71.74
37066;BME280;22981;43.080;25.550;2024-01-30T06:07:16;101974.86;;;0.88;71.73
37066;BME280;22981;43.080;25.550;2024-01-30T06:09:44;101970.83;;;0.83;71.97
37066;BME280;22981;43.080;25.550;2024-01-30T06:12:13;101973.47;;;0.83;71.78
37066;BME280;22981;43.080;25.550;2024-01-30T06:14:40;101975.16;;;0.84;71.79
37066;BME280;22981;43.080;25.550;2024-01-30T06:17:10;101975.45;;;0.86;71.91
37066;BME280;22981;43.080;25.550;2024-01-30T06:19:41;101971.75;;;0.89;71.93
37066;BME280;22981;43.080;25.550;2024-01-30T06:22:08;101972.13;;;0.90;71.86
37066;BME280;22981;43.080;25.550;2024-01-30T06:24:36;101976.55;;;0.89;71.83
37066;BME280;22981;43.080;25.550;2024-01-30T06:27:04;101969.95;;;0.89;71.79
37066;BME280;22981;43.080;25.550;2024-01-30T06:29:31;101970.55;;;0.87;71.78
37066;BME280;22981;43.080;25.550;2024-01-30T06:31:59;101961.58;;;0.90;71.97
37066;BME280;22981;43.080;25.550;2024-01-30T06:34:26;101961.58;;;0.90;71.97
37066;BME280;22981;43.080;25.550;2024-01-30T06:36:54;101966.77;;;0.91;71.86
37066;BME280;22981;43.080;25.550;2024-01-30T06:39:21;101974.20;;;0.92;71.88
37066;BME280;22981;43.080;25.550;2024-01-30T06:41:49;101967.91;;;0.94;71.96
37066;BME280;22981;43.080;25.550;2024-01-30T06:44:17;101972.70;;;0.95;71.89
37066;BME280;22981;43.080;25.550;2024-01-30T06:46:44;101971.09;;;0.92;71.91
37066;BME280;22981;43.080;25.550;2024-01-30T06:49:12;101969.05;;;0.90;71.91
37066;BME280;22981;43.080;25.550;2024-01-30T06:51:39;101978.06;;;0.93;71.88
37066;BME280;22981;43.080;25.550;2024-01-30T06:54:07;101980.03;;;0.97;71.83
37066;BME280;22981;43.080;25.550;2024-01-30T06:56:35;101983.89;;;0.98;71.77
37066;BME280;22981;43.080;25.550;2024-01-30T06:59:02;101984.18;;;1.01;71.71
37066;BME280;22981;43.080;25.550;2024-01-30T07:01:30;101982.13;;;0.99;71.66
37066;BME280;22981;43.080;25.550;2024-01-30T07:03:58;101978.91;;;1.01;71.73
37066;BME280;22981;43.080;25.550;2024-01-30T07:06:25;101987.48;;;1.05;71.57
37066;BME280;22981;43.080;25.550;2024-01-30T07:08:53;101978.72;;;1.04;71.48
37066;BME280;22981;43.080;25.550;2024-01-30T07:11:21;101978.72;;;1.04;71.48
37066;BME280;22981;43.080;25.550;2024-01-30T07:13:51;101988.98;;;1.09;71.52
37066;BME280;22981;43.080;25.550;2024-01-30T07:16:19;101996.23;;;1.12;71.54
37066;BME280;22981;43.080;25.550;2024-01-30T07:18:46;102002.54;;;1.17;71.53
37066;BME280;22981;43.080;25.550;2024-01-30T07:21:14;101999.32;;;1.19;71.53
37066;BME280;22981;43.080;25.550;2024-01-30T07:23:42;101995.47;;;1.24;71.42
37066;BME280;22981;43.080;25.550;2024-01-30T07:26:10;101995.47;;;1.24;71.42
37066;BME280;22981;43.080;25.550;2024-01-30T07:28:37;102002.91;;;1.25;71.38
37066;BME280;22981;43.080;25.550;2024-01-30T07:31:05;102000.63;;;1.33;71.26
37066;BME280;22981;43.080;25.550;2024-01-30T07:33:32;102000.63;;;1.33;71.26
37066;BME280;22981;43.080;25.550;2024-01-30T07:36:00;102004.77;;;1.37;71.22
37066;BME280;22981;43.080;25.550;2024-01-30T07:38:28;102004.77;;;1.37;71.22
37066;BME280;22981;43.080;25.550;2024-01-30T07:40:56;102005.50;;;1.39;70.98
37066;BME280;22981;43.080;25.550;2024-01-30T07:43:23;102017.20;;;1.42;70.91
37066;BME280;22981;43.080;25.550;2024-01-30T07:45:51;102018.30;;;1.45;70.88
37066;BME280;22981;43.080;25.550;2024-01-30T07:48:18;102014.73;;;1.46;70.76
37066;BME280;22981;43.080;25.550;2024-01-30T07:50:46;102017.16;;;1.49;70.68
37066;BME280;22981;43.080;25.550;2024-01-30T07:53:13;102011.32;;;1.52;70.58
37066;BME280;22981;43.080;25.550;2024-01-30T07:55:41;102018.40;;;1.51;70.46
37066;BME280;22981;43.080;25.550;2024-01-30T07:58:10;102018.88;;;1.50;70.41
37066;BME280;22981;43.080;25.550;2024-01-30T08:00:38;102017.74;;;1.47;70.33
37066;BME280;22981;43.080;25.550;2024-01-30T08:03:05;102017.56;;;1.50;70.29
37066;BME280;22981;43.080;25.550;2024-01-30T08:05:33;102013.37;;;1.54;70.18
37066;BME280;22981;43.080;25.550;2024-01-30T08:08:00;102020.74;;;1.56;70.17
37066;BME280;22981;43.080;25.550;2024-01-30T08:10:28;102017.52;;;1.58;70.10
37066;BME280;22981;43.080;25.550;2024-01-30T08:12:55;102017.33;;;1.61;70.03
37066;BME280;22981;43.080;25.550;2024-01-30T08:15:23;102004.02;;;1.62;69.80
37066;BME280;22981;43.080;25.550;2024-01-30T08:17:51;102004.02;;;1.62;69.80
37066;BME280;22981;43.080;25.550;2024-01-30T08:20:20;102003.83;;;1.65;69.79
37066;BME280;22981;43.080;25.550;2024-01-30T08:22:47;102007.12;;;1.69;69.72
37066;BME280;22981;43.080;25.550;2024-01-30T08:25:15;102007.12;;;1.69;69.72
37066;BME280;22981;43.080;25.550;2024-01-30T08:27:42;102012.58;;;1.73;69.83
37066;BME280;22981;43.080;25.550;2024-01-30T08:30:11;102007.10;;;1.76;69.75
37066;BME280;22981;43.080;25.550;2024-01-30T08:32:39;102007.53;;;1.83;69.66
37066;BME280;22981;43.080;25.550;2024-01-30T08:35:06;102010.94;;;1.85;69.54
37066;BME280;22981;43.080;25.550;2024-01-30T08:37:35;102006.32;;;1.81;69.25
37066;BME280;22981;43.080;25.550;2024-01-30T08:40:03;102016.41;;;1.82;69.38
37066;BME280;22981;43.080;25.550;2024-01-30T08:42:30;102015.64;;;1.80;69.38
37066;BME280;22981;43.080;25.550;2024-01-30T08:44:59;102011.97;;;1.82;69.41
37066;BME280;22981;43.080;25.550;2024-01-30T08:47:27;102006.52;;;1.78;69.28
37066;BME280;22981;43.080;25.550;2024-01-30T08:49:54;102007.94;;;1.77;69.27
37066;BME280;22981;43.080;25.550;2024-01-30T08:52:22;102011.43;;;1.77;69.23
37066;BME280;22981;43.080;25.550;2024-01-30T08:54:49;102015.20;;;1.80;69.16
37066;BME280;22981;43.080;25.550;2024-01-30T08:57:17;102003.76;;;1.80;69.19
37066;BME280;22981;43.080;25.550;2024-01-30T08:59:45;102015.81;;;1.84;69.17
37066;BME280;22981;43.080;25.550;2024-01-30T09:02:13;102013.17;;;1.84;69.30
37066;BME280;22981;43.080;25.550;2024-01-30T09:04:42;102012.03;;;1.88;69.19
37066;BME280;22981;43.080;25.550;2024-01-30T09:07:10;102010.45;;;1.85;69.12
37066;BME280;22981;43.080;25.550;2024-01-30T09:09:41;102015.52;;;1.88;69.09
37066;BME280;22981;43.080;25.550;2024-01-30T09:12:09;102011.84;;;1.91;69.01
37066;BME280;22981;43.080;25.550;2024-01-30T09:14:38;102011.47;;;1.90;68.98
37066;BME280;22981;43.080;25.550;2024-01-30T09:17:07;101999.47;;;1.91;68.95
37066;BME280;22981;43.080;25.550;2024-01-30T09:19:35;101995.43;;;1.93;68.87
37066;BME280;22981;43.080;25.550;2024-01-30T09:22:02;101990.59;;;1.92;68.80
37066;BME280;22981;43.080;25.550;2024-01-30T09:24:30;101986.74;;;1.91;68.73
37066;BME280;22981;43.080;25.550;2024-01-30T09:26:58;101992.78;;;1.93;68.80
37066;BME280;22981;43.080;25.550;2024-01-30T09:29:25;101991.52;;;1.98;68.79
37066;BME280;22981;43.080;25.550;2024-01-30T09:31:53;101989.41;;;2.04;68.67
37066;BME280;22981;43.080;25.550;2024-01-30T09:34:21;101978.05;;;2.09;68.55
37066;BME280;22981;43.080;25.550;2024-01-30T09:36:48;101979.06;;;2.13;68.50
37066;BME280;22981;43.080;25.550;2024-01-30T09:39:16;101976.95;;;2.18;68.34
37066;BME280;22981;43.080;25.550;2024-01-30T09:41:53;101976.70;;;2.16;68.22
37066;BME280;22981;43.080;25.550;2024-01-30T09:44:20;101976.50;;;2.19;68.27
37066;BME280;22981;43.080;25.550;2024-01-30T09:46:50;101977.03;;;2.24;68.18
37066;BME280;22981;43.080;25.550;2024-01-30T09:49:18;101976.55;;;2.24;68.10
37066;BME280;22981;43.080;25.550;2024-01-30T09:51:48;101971.91;;;2.28;68.02
37066;BME280;22981;43.080;25.550;2024-01-30T09:54:18;101973.11;;;2.30;67.88
37066;BME280;22981;43.080;25.550;2024-01-30T09:56:48;101973.48;;;2.31;67.81
37066;BME280;22981;43.080;25.550;2024-01-30T09:59:15;101973.16;;;2.35;67.78
37066;BME280;22981;43.080;25.550;2024-01-30T10:01:43;101973.72;;;2.40;67.69
37066;BME280;22981;43.080;25.550;2024-01-30T10:04:10;101974.81;;;2.43;67.64
37066;BME280;22981;43.080;25.550;2024-01-30T10:06:38;101969.32;;;2.46;67.58
37066;BME280;22981;43.080;25.550;2024-01-30T10:09:07;101968.95;;;2.45;67.44
37066;BME280;22981;43.080;25.550;2024-01-30T10:11:36;101976.97;;;2.44;67.45
37066;BME280;22981;43.080;25.550;2024-01-30T10:14:04;101980.26;;;2.47;67.42
37066;BME280;22981;43.080;25.550;2024-01-30T10:16:31;101968.75;;;2.48;67.31
37066;BME280;22981;43.080;25.550;2024-01-30T10:18:59;101961.66;;;2.49;67.21
37066;BME280;22981;43.080;25.550;2024-01-30T10:21:26;101965.36;;;2.46;67.04
37066;BME280;22981;43.080;25.550;2024-01-30T10:23:54;101962.71;;;2.46;66.96
37066;BME280;22981;43.080;25.550;2024-01-30T10:26:21;101964.31;;;2.49;66.91
37066;BME280;22981;43.080;25.550;2024-01-30T10:28:49;101967.56;;;2.53;66.82
37066;BME280;22981;43.080;25.550;2024-01-30T10:31:18;101962.43;;;2.57;66.73
37066;BME280;22981;43.080;25.550;2024-01-30T10:33:45;101963.06;;;2.60;66.65
37066;BME280;22981;43.080;25.550;2024-01-30T10:36:14;101959.95;;;2.61;66.59
37066;BME280;22981;43.080;25.550;2024-01-30T10:38:43;101959.26;;;2.64;66.57
37066;BME280;22981;43.080;25.550;2024-01-30T10:41:13;101956.13;;;2.65;66.44
37066;BME280;22981;43.080;25.550;2024-01-30T10:43:45;101959.73;;;2.64;66.36
37066;BME280;22981;43.080;25.550;2024-01-30T10:46:20;101956.98;;;2.65;66.33
37066;BME280;22981;43.080;25.550;2024-01-30T10:48:58;101958.30;;;2.65;66.28
37066;BME280;22981;43.080;25.550;2024-01-30T10:51:27;101947.72;;;2.65;66.22
37066;BME280;22981;43.080;25.550;2024-01-30T10:53:56;101955.56;;;2.67;66.18
37066;BME280;22981;43.080;25.550;2024-01-30T10:56:24;101942.30;;;2.61;66.17
37066;BME280;22981;43.080;25.550;2024-01-30T10:58:53;101942.30;;;2.61;66.17
37066;BME280;22981;43.080;25.550;2024-01-30T11:01:23;101948.11;;;2.66;66.03
37066;BME280;22981;43.080;25.550;2024-01-30T11:03:52;101946.67;;;2.68;65.97
37066;BME280;22981;43.080;25.550;2024-01-30T11:06:24;101942.02;;;2.71;65.96
37066;BME280;22981;43.080;25.550;2024-01-30T11:09:06;101936.97;;;2.74;65.83
37066;BME280;22981;43.080;25.550;2024-01-30T11:11:55;101935.41;;;2.71;65.70
37066;BME280;22981;43.080;25.550;2024-01-30T11:14:25;101929.91;;;2.74;65.66
37066;BME280;22981;43.080;25.550;2024-01-30T11:16:52;101930.98;;;2.78;65.63
37066;BME280;22981;43.080;25.550;2024-01-30T11:19:24;101925.61;;;2.79;65.58
37066;BME280;22981;43.080;25.550;2024-01-30T11:21:53;101922.96;;;2.79;65.61
37066;BME280;22981;43.080;25.550;2024-01-30T11:24:23;101919.72;;;2.81;65.65
37066;BME280;22981;43.080;25.550;2024-01-30T11:26:58;101915.27;;;2.82;65.61
37066;BME280;22981;43.080;25.550;2024-01-30T11:29:30;101917.83;;;2.83;65.63
37066;BME280;22981;43.080;25.550;2024-01-30T11:32:00;101912.14;;;2.82;65.55
37066;BME280;22981;43.080;25.550;2024-01-30T11:34:28;101910.81;;;2.82;65.49
37066;BME280;22981;43.080;25.550;2024-01-30T11:36:58;101905.92;;;2.83;65.51
37066;BME280;22981;43.080;25.550;2024-01-30T11:39:26;101900.87;;;2.86;65.50
37066;BME280;22981;43.080;25.550;2024-01-30T11:41:54;101901.35;;;2.85;65.38
37066;BME280;22981;43.080;25.550;2024-01-30T11:44:23;101904.12;;;2.84;65.36
37066;BME280;22981;43.080;25.550;2024-01-30T11:46:51;101893.74;;;2.81;65.28
37066;BME280;22981;43.080;25.550;2024-01-30T11:49:19;101896.52;;;2.79;65.21
37066;BME280;22981;43.080;25.550;2024-01-30T11:51:48;101894.59;;;2.81;65.23
37066;BME280;22981;43.080;25.550;2024-01-30T11:54:16;101887.87;;;2.83;65.17
37066;BME280;22981;43.080;25.550;2024-01-30T11:56:43;101887.87;;;2.83;65.13
37066;BME280;22981;43.080;25.550;2024-01-30T11:59:11;101882.11;;;2.83;65.06
37066;BME280;22981;43.080;25.550;2024-01-30T12:01:39;101878.14;;;2.83;65.01
37066;BME280;22981;43.080;25.550;2024-01-30T12:04:06;101883.80;;;2.84;64.96
37066;BME280;22981;43.080;25.550;2024-01-30T12:06:35;101879.70;;;2.86;64.85
37066;BME280;22981;43.080;25.550;2024-01-30T12:09:03;101879.13;;;2.88;64.78
37066;BME280;22981;43.080;25.550;2024-01-30T12:11:31;101869.88;;;2.88;64.67
37066;BME280;22981;43.080;25.550;2024-01-30T12:13:59;101869.60;;;2.85;64.56
37066;BME280;22981;43.080;25.550;2024-01-30T12:16:26;101875.38;;;2.85;64.52
37066;BME280;22981;43.080;25.550;2024-01-30T12:19:00;101874.05;;;2.85;64.54
37066;BME280;22981;43.080;25.550;2024-01-30T12:21:29;101870.56;;;2.84;64.49
37066;BME280;22981;43.080;25.550;2024-01-30T12:23:57;101868.88;;;2.83;64.46
37066;BME280;22981;43.080;25.550;2024-01-30T12:26:25;101867.44;;;2.85;64.48
37066;BME280;22981;43.080;25.550;2024-01-30T12:28:55;101870.80;;;2.87;64.45
37066;BME280;22981;43.080;25.550;2024-01-30T12:31:28;101868.16;;;2.87;64.40
37066;BME280;22981;43.080;25.550;2024-01-30T12:33:56;101863.83;;;2.86;64.46
37066;BME280;22981;43.080;25.550;2024-01-30T12:36:23;101859.77;;;2.87;64.48
37066;BME280;22981;43.080;25.550;2024-01-30T12:38:51;101858.45;;;2.87;64.48
37066;BME280;22981;43.080;25.550;2024-01-30T12:41:20;101854.92;;;2.87;64.41
37066;BME280;22981;43.080;25.550;2024-01-30T12:43:47;101852.41;;;2.85;64.43
37066;BME280;22981;43.080;25.550;2024-01-30T12:46:17;101849.40;;;2.84;64.41
37066;BME280;22981;43.080;25.550;2024-01-30T12:48:44;101857.97;;;2.88;64.45
37066;BME280;22981;43.080;25.550;2024-01-30T12:51:12;101856.87;;;2.90;64.41
37066;BME280;22981;43.080;25.550;2024-01-30T12:53:39;101854.63;;;2.91;64.34